sensor_id;sensor_type;location;lat;lon;timestamp;P1;durP1;ratioP1;P2;durP2;ratioP2
9420;SDS011;4749;51.398;5.466;2023-06-05T00:02:25;5.88;;;2.38;;
9420;SDS011;4749;51.398;5.466;2023-06-05T00:04:53;2.47;;;1.85;;
9420;SDS011;4749;51.398;5.466;2023-06-05T00:07:20;4.53;;;1.85;;
9420;SDS011;4749;51.398;5.466;2023-06-05T00:09:47;3.08;;;1.90;;
9420;SDS011;4749;51.398;5.466;2023-06-05T00:12:14;5.05;;;2.22;;
9420;SDS011;4749;51.398;5.466;2023-06-05T00:14:43;5.82;;;2.22;;
9420;SDS011;4749;51.398;5.466;2023-06-05T00:17:11;4.13;;;1.83;;
9420;SDS011;4749;51.398;5.466;2023-06-05T00:19:38;4.82;;;3.00;;
9420;SDS011;4749;51.398;5.466;2023-06-05T00:22:05;4.75;;;2.33;;
9420;SDS011;4749;51.398;5.466;2023-06-05T00:24:32;4.45;;;2.42;;
9420;SDS011;4749;51.398;5.466;2023-06-05T00:26:59;3.33;;;1.80;;
9420;SDS011;4749;51.398;5.466;2023-06-05T00:29:27;5.63;;;2.25;;
9420;SDS011;4749;51.398;5.466;2023-06-05T00:31:54;4.07;;;2.15;;
9420;SDS011;4749;51.398;5.466;2023-06-05T00:34:22;4.72;;;2.30;;
9420;SDS011;4749;51.398;5.466;2023-06-05T00:36:49;3.50;;;2.20;;
9420;SDS011;4749;51.398;5.466;2023-06-05T00:39:17;4.60;;;2.05;;
9420;SDS011;4749;51.398;5.466;2023-06-05T00:41:47;7.65;;;2.60;;
9420;SDS011;4749;51.398;5.466;2023-06-05T00:44:14;2.67;;;1.80;;
9420;SDS011;4749;51.398;5.466;2023-06-05T00:46:42;6.90;;;2.22;;
9420;SDS011;4749;51.398;5.466;2023-06-05T00:49:11;4.60;;;2.33;;
9420;SDS011;4749;51.398;5.466;2023-06-05T00:51:39;3.35;;;1.98;;
9420;SDS011;4749;51.398;5.466;2023-06-05T00:54:10;4.75;;;2.47;;
9420;SDS011;4749;51.398;5.466;2023-06-05T00:56:40;4.85;;;2.40;;
9420;SDS011;4749;51.398;5.466;2023-06-05T00:59:08;3.53;;;2.38;;
9420;SDS011;4749;51.398;5.466;2023-06-05T01:01:36;4.03;;;2.20;;
9420;SDS011;4749;51.398;5.466;2023-06-05T01:04:04;3.88;;;2.13;;
9420;SDS011;4749;51.398;5.466;2023-06-05T01:06:32;3.65;;;2.50;;
9420;SDS011;4749;51.398;5.466;2023-06-05T01:09:01;3.67;;;2.20;;
9420;SDS011;4749;51.398;5.466;2023-06-05T01:14:30;4.80;;;2.70;;
9420;SDS011;4749;51.398;5.466;2023-06-05T01:17:01;4.43;;;2.42;;
9420;SDS011;4749;51.398;5.466;2023-06-05T01:19:31;5.63;;;2.40;;
9420;SDS011;4749;51.398;5.466;2023-06-05T01:21:59;6.53;;;2.78;;
9420;SDS011;4749;51.398;5.466;2023-06-05T01:24:27;5.32;;;3.28;;
9420;SDS011;4749;51.398;5.466;2023-06-05T01:29:39;5.65;;;2.72;;
9420;SDS011;4749;51.398;5.466;2023-06-05T01:32:15;5.78;;;2.75;;
9420;SDS011;4749;51.398;5.466;2023-06-05T01:35:07;5.00;;;2.85;;
9420;SDS011;4749;51.398;5.466;2023-06-05T01:37:38;6.60;;;2.90;;
9420;SDS011;4749;51.398;5.466;2023-06-05T01:40:11;5.75;;;2.90;;
9420;SDS011;4749;51.398;5.466;2023-06-05T01:42:41;4.88;;;2.33;;
9420;SDS011;4749;51.398;5.466;2023-06-05T01:45:10;4.63;;;2.88;;
9420;SDS011;4749;51.398;5.466;2023-06-05T01:47:39;6.38;;;2.90;;
9420;SDS011;4749;51.398;5.466;2023-06-05T01:50:06;3.55;;;2.90;;
9420;SDS011;4749;51.398;5.466;2023-06-05T01:52:35;5.88;;;3.08;;
9420;SDS011;4749;51.398;5.466;2023-06-05T01:55:03;5.68;;;2.80;;
9420;SDS011;4749;51.398;5.466;2023-06-05T01:57:31;6.00;;;3.15;;
9420;SDS011;4749;51.398;5.466;2023-06-05T02:00:00;4.70;;;3.35;;
9420;SDS011;4749;51.398;5.466;2023-06-05T02:02:34;5.00;;;3.17;;
9420;SDS011;4749;51.398;5.466;2023-06-05T02:05:02;5.05;;;3.03;;
9420;SDS011;4749;51.398;5.466;2023-06-05T02:07:30;5.43;;;3.35;;
9420;SDS011;4749;51.398;5.466;2023-06-05T02:09:59;10.00;;;3.30;;
9420;SDS011;4749;51.398;5.466;2023-06-05T02:12:28;6.47;;;3.00;;
9420;SDS011;4749;51.398;5.466;2023-06-05T02:14:55;9.48;;;3.35;;
9420;SDS011;4749;51.398;5.466;2023-06-05T02:17:23;3.97;;;3.15;;
9420;SDS011;4749;51.398;5.466;2023-06-05T02:19:51;5.18;;;3.42;;
9420;SDS011;4749;51.398;5.466;2023-06-05T02:22:18;5.75;;;2.97;;
9420;SDS011;4749;51.398;5.466;2023-06-05T02:24:45;5.53;;;3.40;;
9420;SDS011;4749;51.398;5.466;2023-06-05T02:27:12;7.45;;;4.00;;
9420;SDS011;4749;51.398;5.466;2023-06-05T02:29:39;5.00;;;3.08;;
9420;SDS011;4749;51.398;5.466;2023-06-05T02:32:07;7.57;;;2.92;;
9420;SDS011;4749;51.398;5.466;2023-06-05T02:34:34;5.50;;;3.40;;
9420;SDS011;4749;51.398;5.466;2023-06-05T02:37:01;8.27;;;3.80;;
9420;SDS011;4749;51.398;5.466;2023-06-05T02:39:29;7.53;;;3.97;;
9420;SDS011;4749;51.398;5.466;2023-06-05T02:41:58;7.75;;;3.90;;
9420;SDS011;4749;51.398;5.466;2023-06-05T02:44:25;7.22;;;3.95;;
9420;SDS011;4749;51.398;5.466;2023-06-05T02:46:52;8.57;;;4.40;;
9420;SDS011;4749;51.398;5.466;2023-06-05T02:49:20;5.05;;;3.60;;
9420;SDS011;4749;51.398;5.466;2023-06-05T02:51:47;6.03;;;3.55;;
9420;SDS011;4749;51.398;5.466;2023-06-05T02:54:14;7.28;;;4.50;;
9420;SDS011;4749;51.398;5.466;2023-06-05T02:56:41;6.47;;;3.60;;
9420;SDS011;4749;51.398;5.466;2023-06-05T02:59:10;5.50;;;3.47;;
9420;SDS011;4749;51.398;5.466;2023-06-05T03:01:37;6.20;;;3.58;;
9420;SDS011;4749;51.398;5.466;2023-06-05T03:04:13;6.93;;;4.15;;
9420;SDS011;4749;51.398;5.466;2023-06-05T03:06:40;6.65;;;4.05;;
9420;SDS011;4749;51.398;5.466;2023-06-05T03:09:09;7.40;;;4.43;;
9420;SDS011;4749;51.398;5.466;2023-06-05T03:11:37;10.90;;;4.45;;
9420;SDS011;4749;51.398;5.466;2023-06-05T03:14:04;7.07;;;4.72;;
9420;SDS011;4749;51.398;5.466;2023-06-05T03:16:31;7.07;;;4.13;;
9420;SDS011;4749;51.398;5.466;2023-06-05T03:19:08;7.07;;;4.50;;
9420;SDS011;4749;51.398;5.466;2023-06-05T03:21:36;6.97;;;4.10;;
9420;SDS011;4749;51.398;5.466;2023-06-05T03:24:06;7.28;;;4.43;;
9420;SDS011;4749;51.398;5.466;2023-06-05T03:26:40;9.70;;;4.70;;
9420;SDS011;4749;51.398;5.466;2023-06-05T03:29:12;5.43;;;4.28;;
9420;SDS011;4749;51.398;5.466;2023-06-05T03:31:39;6.10;;;4.15;;
9420;SDS011;4749;51.398;5.466;2023-06-05T03:34:06;7.93;;;4.70;;
9420;SDS011;4749;51.398;5.466;2023-06-05T03:36:33;7.70;;;4.22;;
9420;SDS011;4749;51.398;5.466;2023-06-05T03:39:00;9.68;;;4.68;;
9420;SDS011;4749;51.398;5.466;2023-06-05T03:41:28;6.72;;;4.15;;
9420;SDS011;4749;51.398;5.466;2023-06-05T03:43:55;5.45;;;4.28;;
9420;SDS011;4749;51.398;5.466;2023-06-05T03:46:23;7.13;;;4.57;;
9420;SDS011;4749;51.398;5.466;2023-06-05T03:48:50;6.63;;;4.85;;
9420;SDS011;4749;51.398;5.466;2023-06-05T03:51:27;7.15;;;4.75;;
9420;SDS011;4749;51.398;5.466;2023-06-05T03:53:59;6.88;;;5.15;;
9420;SDS011;4749;51.398;5.466;2023-06-05T03:56:27;6.78;;;4.85;;
9420;SDS011;4749;51.398;5.466;2023-06-05T03:59:00;8.88;;;4.68;;
9420;SDS011;4749;51.398;5.466;2023-06-05T04:01:45;7.00;;;4.57;;
9420;SDS011;4749;51.398;5.466;2023-06-05T04:04:12;7.22;;;5.10;;
9420;SDS011;4749;51.398;5.466;2023-06-05T04:06:40;5.63;;;4.50;;
9420;SDS011;4749;51.398;5.466;2023-06-05T04:09:07;6.75;;;4.40;;
9420;SDS011;4749;51.398;5.466;2023-06-05T04:11:42;8.90;;;5.38;;
9420;SDS011;4749;51.398;5.466;2023-06-05T04:14:10;7.93;;;5.20;;
9420;SDS011;4749;51.398;5.466;2023-06-05T04:16:38;7.88;;;4.57;;
9420;SDS011;4749;51.398;5.466;2023-06-05T04:19:07;8.38;;;5.07;;
9420;SDS011;4749;51.398;5.466;2023-06-05T04:21:36;6.43;;;5.13;;
9420;SDS011;4749;51.398;5.466;2023-06-05T04:24:05;7.38;;;5.30;;
9420;SDS011;4749;51.398;5.466;2023-06-05T04:26:39;7.10;;;5.18;;
9420;SDS011;4749;51.398;5.466;2023-06-05T04:29:10;8.60;;;5.68;;
9420;SDS011;4749;51.398;5.466;2023-06-05T04:31:42;8.05;;;5.22;;
9420;SDS011;4749;51.398;5.466;2023-06-05T04:34:11;6.60;;;4.63;;
9420;SDS011;4749;51.398;5.466;2023-06-05T04:36:42;6.07;;;4.95;;
9420;SDS011;4749;51.398;5.466;2023-06-05T04:39:09;5.80;;;4.50;;
9420;SDS011;4749;51.398;5.466;2023-06-05T04:41:41;8.80;;;4.90;;
9420;SDS011;4749;51.398;5.466;2023-06-05T04:44:12;7.00;;;5.40;;
9420;SDS011;4749;51.398;5.466;2023-06-05T04:46:40;7.47;;;5.45;;
9420;SDS011;4749;51.398;5.466;2023-06-05T04:49:10;8.45;;;5.30;;
9420;SDS011;4749;51.398;5.466;2023-06-05T04:51:41;7.95;;;5.22;;
9420;SDS011;4749;51.398;5.466;2023-06-05T04:54:10;8.73;;;6.00;;
9420;SDS011;4749;51.398;5.466;2023-06-05T04:56:38;8.93;;;5.28;;
9420;SDS011;4749;51.398;5.466;2023-06-05T04:59:06;10.20;;;5.90;;
9420;SDS011;4749;51.398;5.466;2023-06-05T05:01:33;7.60;;;5.25;;
9420;SDS011;4749;51.398;5.466;2023-06-05T05:04:01;8.80;;;5.60;;
9420;SDS011;4749;51.398;5.466;2023-06-05T05:06:29;8.10;;;5.57;;
9420;SDS011;4749;51.398;5.466;2023-06-05T05:08:57;8.55;;;5.78;;
9420;SDS011;4749;51.398;5.466;2023-06-05T05:11:26;8.13;;;5.45;;
9420;SDS011;4749;51.398;5.466;2023-06-05T05:13:53;7.22;;;5.13;;
9420;SDS011;4749;51.398;5.466;2023-06-05T05:16:20;7.20;;;5.60;;
9420;SDS011;4749;51.398;5.466;2023-06-05T05:18:48;8.85;;;6.20;;
9420;SDS011;4749;51.398;5.466;2023-06-05T05:21:16;7.45;;;5.13;;
9420;SDS011;4749;51.398;5.466;2023-06-05T05:23:44;8.43;;;5.75;;
9420;SDS011;4749;51.398;5.466;2023-06-05T05:26:11;11.25;;;6.35;;
9420;SDS011;4749;51.398;5.466;2023-06-05T05:28:38;8.38;;;5.50;;
9420;SDS011;4749;51.398;5.466;2023-06-05T05:31:06;9.10;;;6.03;;
9420;SDS011;4749;51.398;5.466;2023-06-05T05:33:33;7.43;;;5.93;;
9420;SDS011;4749;51.398;5.466;2023-06-05T05:36:01;9.65;;;5.68;;
9420;SDS011;4749;51.398;5.466;2023-06-05T05:38:28;9.50;;;5.47;;
9420;SDS011;4749;51.398;5.466;2023-06-05T05:40:56;7.47;;;5.63;;
9420;SDS011;4749;51.398;5.466;2023-06-05T05:43:23;7.00;;;5.85;;
9420;SDS011;4749;51.398;5.466;2023-06-05T05:45:51;6.45;;;5.18;;
9420;SDS011;4749;51.398;5.466;2023-06-05T05:48:18;8.02;;;5.90;;
9420;SDS011;4749;51.398;5.466;2023-06-05T05:50:46;9.27;;;5.88;;
9420;SDS011;4749;51.398;5.466;2023-06-05T05:53:13;6.93;;;5.50;;
9420;SDS011;4749;51.398;5.466;2023-06-05T05:55:41;8.85;;;6.32;;
9420;SDS011;4749;51.398;5.466;2023-06-05T05:58:08;7.75;;;5.85;;
9420;SDS011;4749;51.398;5.466;2023-06-05T06:00:35;9.15;;;5.80;;
9420;SDS011;4749;51.398;5.466;2023-06-05T06:03:02;8.98;;;6.28;;
9420;SDS011;4749;51.398;5.466;2023-06-05T06:05:30;8.38;;;5.63;;
9420;SDS011;4749;51.398;5.466;2023-06-05T06:07:57;8.48;;;5.50;;
9420;SDS011;4749;51.398;5.466;2023-06-05T06:10:25;6.93;;;5.53;;
9420;SDS011;4749;51.398;5.466;2023-06-05T06:12:53;8.13;;;5.65;;
9420;SDS011;4749;51.398;5.466;2023-06-05T06:15:20;8.25;;;5.97;;
9420;SDS011;4749;51.398;5.466;2023-06-05T06:17:47;8.02;;;6.43;;
9420;SDS011;4749;51.398;5.466;2023-06-05T06:20:14;8.63;;;6.07;;
9420;SDS011;4749;51.398;5.466;2023-06-05T06:22:42;8.60;;;5.80;;
9420;SDS011;4749;51.398;5.466;2023-06-05T06:25:10;11.45;;;5.93;;
9420;SDS011;4749;51.398;5.466;2023-06-05T06:27:38;7.68;;;5.95;;
9420;SDS011;4749;51.398;5.466;2023-06-05T06:30:05;7.75;;;5.55;;
9420;SDS011;4749;51.398;5.466;2023-06-05T06:32:33;7.88;;;5.50;;
9420;SDS011;4749;51.398;5.466;2023-06-05T06:35:01;7.15;;;5.97;;
9420;SDS011;4749;51.398;5.466;2023-06-05T06:37:28;8.85;;;5.93;;
9420;SDS011;4749;51.398;5.466;2023-06-05T06:39:55;9.57;;;6.20;;
9420;SDS011;4749;51.398;5.466;2023-06-05T06:42:22;6.95;;;5.78;;
9420;SDS011;4749;51.398;5.466;2023-06-05T06:44:49;9.65;;;6.70;;
9420;SDS011;4749;51.398;5.466;2023-06-05T06:47:22;8.60;;;5.43;;
9420;SDS011;4749;51.398;5.466;2023-06-05T06:49:52;8.60;;;5.95;;
9420;SDS011;4749;51.398;5.466;2023-06-05T06:52:20;7.57;;;5.75;;
9420;SDS011;4749;51.398;5.466;2023-06-05T06:54:51;10.75;;;5.85;;
9420;SDS011;4749;51.398;5.466;2023-06-05T06:57:18;6.65;;;5.18;;
9420;SDS011;4749;51.398;5.466;2023-06-05T06:59:45;8.93;;;5.07;;
9420;SDS011;4749;51.398;5.466;2023-06-05T07:02:17;7.57;;;5.65;;
9420;SDS011;4749;51.398;5.466;2023-06-05T07:04:46;10.98;;;7.13;;
9420;SDS011;4749;51.398;5.466;2023-06-05T07:07:15;8.30;;;6.32;;
9420;SDS011;4749;51.398;5.466;2023-06-05T07:09:45;9.05;;;6.82;;
9420;SDS011;4749;51.398;5.466;2023-06-05T07:12:14;8.18;;;6.78;;
9420;SDS011;4749;51.398;5.466;2023-06-05T07:14:42;9.55;;;6.40;;
9420;SDS011;4749;51.398;5.466;2023-06-05T07:17:09;9.40;;;6.22;;
9420;SDS011;4749;51.398;5.466;2023-06-05T07:19:37;8.07;;;5.82;;
9420;SDS011;4749;51.398;5.466;2023-06-05T07:22:04;9.07;;;6.57;;
9420;SDS011;4749;51.398;5.466;2023-06-05T07:24:33;8.02;;;6.68;;
9420;SDS011;4749;51.398;5.466;2023-06-05T07:27:02;8.85;;;6.97;;
9420;SDS011;4749;51.398;5.466;2023-06-05T07:29:30;11.38;;;7.32;;
9420;SDS011;4749;51.398;5.466;2023-06-05T07:31:58;12.18;;;7.22;;
9420;SDS011;4749;51.398;5.466;2023-06-05T07:34:26;9.98;;;6.85;;
9420;SDS011;4749;51.398;5.466;2023-06-05T07:36:53;13.27;;;6.57;;
9420;SDS011;4749;51.398;5.466;2023-06-05T07:39:23;11.40;;;6.90;;
9420;SDS011;4749;51.398;5.466;2023-06-05T07:41:50;10.40;;;7.38;;
9420;SDS011;4749;51.398;5.466;2023-06-05T07:44:18;8.65;;;6.60;;
9420;SDS011;4749;51.398;5.466;2023-06-05T07:46:48;9.63;;;6.78;;
9420;SDS011;4749;51.398;5.466;2023-06-05T07:49:16;14.65;;;7.15;;
9420;SDS011;4749;51.398;5.466;2023-06-05T07:51:44;10.40;;;7.13;;
9420;SDS011;4749;51.398;5.466;2023-06-05T07:54:16;7.78;;;6.45;;
9420;SDS011;4749;51.398;5.466;2023-06-05T07:56:45;8.13;;;6.65;;
9420;SDS011;4749;51.398;5.466;2023-06-05T07:59:15;11.80;;;7.55;;
9420;SDS011;4749;51.398;5.466;2023-06-05T08:01:43;11.57;;;7.68;;
9420;SDS011;4749;51.398;5.466;2023-06-05T08:04:11;9.57;;;6.55;;
9420;SDS011;4749;51.398;5.466;2023-06-05T08:06:39;8.02;;;6.53;;
9420;SDS011;4749;51.398;5.466;2023-06-05T08:09:08;10.10;;;7.05;;
9420;SDS011;4749;51.398;5.466;2023-06-05T08:11:36;8.75;;;7.00;;
9420;SDS011;4749;51.398;5.466;2023-06-05T08:14:04;9.23;;;6.78;;
9420;SDS011;4749;51.398;5.466;2023-06-05T08:16:32;11.68;;;7.07;;
9420;SDS011;4749;51.398;5.466;2023-06-05T08:19:01;9.40;;;6.78;;
9420;SDS011;4749;51.398;5.466;2023-06-05T08:21:28;10.32;;;6.18;;
9420;SDS011;4749;51.398;5.466;2023-06-05T08:23:56;8.80;;;6.53;;
9420;SDS011;4749;51.398;5.466;2023-06-05T08:26:24;10.40;;;6.60;;
9420;SDS011;4749;51.398;5.466;2023-06-05T08:28:52;11.20;;;6.78;;
9420;SDS011;4749;51.398;5.466;2023-06-05T08:31:19;8.93;;;6.00;;
9420;SDS011;4749;51.398;5.466;2023-06-05T08:33:47;9.20;;;6.15;;
9420;SDS011;4749;51.398;5.466;2023-06-05T08:36:14;9.38;;;5.95;;
9420;SDS011;4749;51.398;5.466;2023-06-05T08:38:43;8.65;;;6.15;;
9420;SDS011;4749;51.398;5.466;2023-06-05T08:41:12;11.43;;;6.25;;
9420;SDS011;4749;51.398;5.466;2023-06-05T08:43:42;7.85;;;5.88;;
9420;SDS011;4749;51.398;5.466;2023-06-05T08:46:13;9.32;;;5.20;;
9420;SDS011;4749;51.398;5.466;2023-06-05T08:48:45;7.93;;;5.82;;
9420;SDS011;4749;51.398;5.466;2023-06-05T08:51:15;7.07;;;5.97;;
9420;SDS011;4749;51.398;5.466;2023-06-05T08:53:51;9.32;;;6.20;;
9420;SDS011;4749;51.398;5.466;2023-06-05T08:56:39;7.80;;;5.43;;
9420;SDS011;4749;51.398;5.466;2023-06-05T08:59:08;7.80;;;5.15;;
9420;SDS011;4749;51.398;5.466;2023-06-05T09:01:41;7.47;;;4.88;;
9420;SDS011;4749;51.398;5.466;2023-06-05T09:04:10;8.20;;;5.18;;
9420;SDS011;4749;51.398;5.466;2023-06-05T09:06:37;6.05;;;5.05;;
9420;SDS011;4749;51.398;5.466;2023-06-05T09:09:06;6.63;;;4.90;;
9420;SDS011;4749;51.398;5.466;2023-06-05T09:11:35;7.63;;;5.60;;
9420;SDS011;4749;51.398;5.466;2023-06-05T09:14:02;7.70;;;4.43;;
9420;SDS011;4749;51.398;5.466;2023-06-05T09:16:34;7.38;;;5.32;;
9420;SDS011;4749;51.398;5.466;2023-06-05T09:19:05;6.88;;;4.60;;
9420;SDS011;4749;51.398;5.466;2023-06-05T09:21:32;6.85;;;4.43;;
9420;SDS011;4749;51.398;5.466;2023-06-05T09:24:19;6.68;;;4.68;;
9420;SDS011;4749;51.398;5.466;2023-06-05T09:26:55;7.82;;;4.65;;
9420;SDS011;4749;51.398;5.466;2023-06-05T09:29:36;7.03;;;4.25;;
9420;SDS011;4749;51.398;5.466;2023-06-05T09:34:42;7.20;;;4.55;;
9420;SDS011;4749;51.398;5.466;2023-06-05T09:37:12;7.07;;;4.68;;
9420;SDS011;4749;51.398;5.466;2023-06-05T09:39:40;7.15;;;3.92;;
9420;SDS011;4749;51.398;5.466;2023-06-05T09:42:12;7.60;;;5.10;;
9420;SDS011;4749;51.398;5.466;2023-06-05T09:44:39;9.25;;;5.28;;
9420;SDS011;4749;51.398;5.466;2023-06-05T09:47:07;7.22;;;4.50;;
9420;SDS011;4749;51.398;5.466;2023-06-05T09:52:08;8.23;;;4.53;;
9420;SDS011;4749;51.398;5.466;2023-06-05T09:54:37;7.22;;;4.70;;
9420;SDS011;4749;51.398;5.466;2023-06-05T09:57:14;9.52;;;4.68;;
9420;SDS011;4749;51.398;5.466;2023-06-05T09:59:52;11.38;;;4.60;;
9420;SDS011;4749;51.398;5.466;2023-06-05T10:02:23;6.78;;;4.55;;
9420;SDS011;4749;51.398;5.466;2023-06-05T10:05:01;7.07;;;5.35;;
9420;SDS011;4749;51.398;5.466;2023-06-05T10:07:33;8.05;;;5.00;;
9420;SDS011;4749;51.398;5.466;2023-06-05T10:10:05;7.65;;;5.07;;
9420;SDS011;4749;51.398;5.466;2023-06-05T10:12:36;6.40;;;5.13;;
9420;SDS011;4749;51.398;5.466;2023-06-05T10:15:04;8.70;;;5.30;;
9420;SDS011;4749;51.398;5.466;2023-06-05T10:17:36;6.38;;;4.28;;
9420;SDS011;4749;51.398;5.466;2023-06-05T10:20:05;10.60;;;4.57;;
9420;SDS011;4749;51.398;5.466;2023-06-05T10:22:34;6.15;;;4.45;;
9420;SDS011;4749;51.398;5.466;2023-06-05T10:25:07;11.88;;;4.75;;
9420;SDS011;4749;51.398;5.466;2023-06-05T10:38:45;8.43;;;4.90;;
9420;SDS011;4749;51.398;5.466;2023-06-05T10:41:14;5.38;;;3.78;;
9420;SDS011;4749;51.398;5.466;2023-06-05T10:43:48;6.30;;;3.40;;
9420;SDS011;4749;51.398;5.466;2023-06-05T10:46:35;7.07;;;4.40;;
9420;SDS011;4749;51.398;5.466;2023-06-05T10:49:18;6.38;;;4.45;;
9420;SDS011;4749;51.398;5.466;2023-06-05T10:51:49;7.78;;;3.58;;
9420;SDS011;4749;51.398;5.466;2023-06-05T10:59:20;5.80;;;3.65;;
9420;SDS011;4749;51.398;5.466;2023-06-05T11:10:27;7.65;;;3.92;;
9420;SDS011;4749;51.398;5.466;2023-06-05T11:17:54;5.18;;;3.28;;
9420;SDS011;4749;51.398;5.466;2023-06-05T11:27:49;6.82;;;3.50;;
9420;SDS011;4749;51.398;5.466;2023-06-05T11:30:23;5.32;;;3.30;;
9420;SDS011;4749;51.398;5.466;2023-06-05T11:33:13;5.05;;;3.67;;
9420;SDS011;4749;51.398;5.466;2023-06-05T11:35:48;6.30;;;3.38;;
9420;SDS011;4749;51.398;5.466;2023-06-05T11:38:18;7.55;;;3.70;;
9420;SDS011;4749;51.398;5.466;2023-06-05T11:40:50;5.75;;;3.20;;
9420;SDS011;4749;51.398;5.466;2023-06-05T11:43:19;6.18;;;3.83;;
9420;SDS011;4749;51.398;5.466;2023-06-05T11:45:57;6.28;;;2.97;;
9420;SDS011;4749;51.398;5.466;2023-06-05T11:48:25;4.65;;;3.08;;
9420;SDS011;4749;51.398;5.466;2023-06-05T11:50:53;7.60;;;3.30;;
9420;SDS011;4749;51.398;5.466;2023-06-05T11:53:29;4.53;;;2.60;;
9420;SDS011;4749;51.398;5.466;2023-06-05T11:55:58;7.82;;;2.50;;
9420;SDS011;4749;51.398;5.466;2023-06-05T11:58:35;4.70;;;2.70;;
9420;SDS011;4749;51.398;5.466;2023-06-05T12:01:07;6.13;;;2.60;;
9420;SDS011;4749;51.398;5.466;2023-06-05T12:04:01;5.45;;;3.10;;
9420;SDS011;4749;51.398;5.466;2023-06-05T12:06:31;4.13;;;2.70;;
9420;SDS011;4749;51.398;5.466;2023-06-05T12:09:10;3.83;;;2.55;;
9420;SDS011;4749;51.398;5.466;2023-06-05T12:11:39;4.55;;;2.58;;
9420;SDS011;4749;51.398;5.466;2023-06-05T12:14:32;5.03;;;2.95;;
9420;SDS011;4749;51.398;5.466;2023-06-05T12:17:00;3.30;;;2.00;;
9420;SDS011;4749;51.398;5.466;2023-06-05T12:19:34;4.50;;;2.60;;
9420;SDS011;4749;51.398;5.466;2023-06-05T12:22:05;5.05;;;2.13;;
9420;SDS011;4749;51.398;5.466;2023-06-05T12:24:36;3.90;;;2.10;;
9420;SDS011;4749;51.398;5.466;2023-06-05T12:27:04;5.72;;;2.35;;
9420;SDS011;4749;51.398;5.466;2023-06-05T14:05:10;3.13;;;1.85;;
9420;SDS011;4749;51.398;5.466;2023-06-05T14:07:37;4.63;;;1.70;;
9420;SDS011;4749;51.398;5.466;2023-06-05T14:10:16;2.58;;;1.50;;
9420;SDS011;4749;51.398;5.466;2023-06-05T14:12:44;2.20;;;1.50;;
9420;SDS011;4749;51.398;5.466;2023-06-05T14:15:12;5.07;;;1.92;;
9420;SDS011;4749;51.398;5.466;2023-06-05T14:17:39;3.50;;;2.05;;
9420;SDS011;4749;51.398;5.466;2023-06-05T14:20:07;2.95;;;1.55;;
9420;SDS011;4749;51.398;5.466;2023-06-05T14:22:35;3.40;;;1.60;;
9420;SDS011;4749;51.398;5.466;2023-06-05T14:25:03;3.80;;;1.70;;
9420;SDS011;4749;51.398;5.466;2023-06-05T14:27:33;2.55;;;1.50;;
9420;SDS011;4749;51.398;5.466;2023-06-05T14:30:00;2.35;;;1.58;;
9420;SDS011;4749;51.398;5.466;2023-06-05T14:32:28;4.18;;;1.60;;
9420;SDS011;4749;51.398;5.466;2023-06-05T14:34:57;2.55;;;1.58;;
9420;SDS011;4749;51.398;5.466;2023-06-05T14:37:24;3.65;;;1.85;;
9420;SDS011;4749;51.398;5.466;2023-06-05T14:39:52;1.80;;;1.50;;
9420;SDS011;4749;51.398;5.466;2023-06-05T14:42:21;2.10;;;1.50;;
9420;SDS011;4749;51.398;5.466;2023-06-05T14:44:50;4.78;;;1.80;;
9420;SDS011;4749;51.398;5.466;2023-06-05T14:47:17;2.72;;;1.58;;
9420;SDS011;4749;51.398;5.466;2023-06-05T14:49:44;3.15;;;1.70;;
9420;SDS011;4749;51.398;5.466;2023-06-05T14:52:12;8.90;;;1.85;;
9420;SDS011;4749;51.398;5.466;2023-06-05T14:54:39;3.90;;;1.65;;
9420;SDS011;4749;51.398;5.466;2023-06-05T14:57:21;9.57;;;2.35;;
9420;SDS011;4749;51.398;5.466;2023-06-05T14:59:49;4.43;;;1.90;;
9420;SDS011;4749;51.398;5.466;2023-06-05T15:02:17;5.72;;;1.70;;
9420;SDS011;4749;51.398;5.466;2023-06-05T15:04:48;5.10;;;1.60;;
9420;SDS011;4749;51.398;5.466;2023-06-05T15:07:20;4.40;;;1.70;;
9420;SDS011;4749;51.398;5.466;2023-06-05T15:09:48;3.80;;;1.40;;
9420;SDS011;4749;51.398;5.466;2023-06-05T15:12:18;3.72;;;1.70;;
9420;SDS011;4749;51.398;5.466;2023-06-05T15:14:45;3.05;;;1.60;;
9420;SDS011;4749;51.398;5.466;2023-06-05T15:17:13;2.97;;;1.65;;
9420;SDS011;4749;51.398;5.466;2023-06-05T15:19:41;2.85;;;1.50;;
9420;SDS011;4749;51.398;5.466;2023-06-05T15:22:09;3.15;;;1.70;;
9420;SDS011;4749;51.398;5.466;2023-06-05T15:24:36;2.72;;;1.35;;
9420;SDS011;4749;51.398;5.466;2023-06-05T15:27:03;2.95;;;1.80;;
9420;SDS011;4749;51.398;5.466;2023-06-05T15:29:31;4.38;;;1.70;;
9420;SDS011;4749;51.398;5.466;2023-06-05T15:31:58;2.35;;;1.80;;
9420;SDS011;4749;51.398;5.466;2023-06-05T15:34:44;2.13;;;1.55;;
9420;SDS011;4749;51.398;5.466;2023-06-05T15:37:11;3.45;;;1.60;;
9420;SDS011;4749;51.398;5.466;2023-06-05T15:39:38;2.40;;;1.90;;
9420;SDS011;4749;51.398;5.466;2023-06-05T15:42:08;2.33;;;1.55;;
9420;SDS011;4749;51.398;5.466;2023-06-05T15:44:38;4.63;;;1.80;;
9420;SDS011;4749;51.398;5.466;2023-06-05T15:47:06;2.58;;;1.70;;
9420;SDS011;4749;51.398;5.466;2023-06-05T15:49:34;2.00;;;1.70;;
9420;SDS011;4749;51.398;5.466;2023-06-05T15:52:01;2.63;;;1.48;;
9420;SDS011;4749;51.398;5.466;2023-06-05T15:54:28;1.90;;;1.38;;
9420;SDS011;4749;51.398;5.466;2023-06-05T15:57:16;3.58;;;1.80;;
9420;SDS011;4749;51.398;5.466;2023-06-05T15:59:44;4.18;;;2.03;;
9420;SDS011;4749;51.398;5.466;2023-06-05T16:02:11;3.08;;;1.55;;
9420;SDS011;4749;51.398;5.466;2023-06-05T16:04:39;5.03;;;1.83;;
9420;SDS011;4749;51.398;5.466;2023-06-05T16:07:07;4.47;;;1.60;;
9420;SDS011;4749;51.398;5.466;2023-06-05T16:09:34;3.05;;;1.55;;
9420;SDS011;4749;51.398;5.466;2023-06-05T16:12:02;4.30;;;1.80;;
9420;SDS011;4749;51.398;5.466;2023-06-05T16:14:29;3.67;;;1.80;;
9420;SDS011;4749;51.398;5.466;2023-06-05T16:16:57;4.32;;;1.90;;
9420;SDS011;4749;51.398;5.466;2023-06-05T16:19:24;4.07;;;2.00;;
9420;SDS011;4749;51.398;5.466;2023-06-05T16:21:51;4.18;;;2.17;;
9420;SDS011;4749;51.398;5.466;2023-06-05T16:24:19;2.53;;;1.80;;
9420;SDS011;4749;51.398;5.466;2023-06-05T16:26:46;3.65;;;1.80;;
9420;SDS011;4749;51.398;5.466;2023-06-05T16:29:13;5.22;;;1.88;;
9420;SDS011;4749;51.398;5.466;2023-06-05T16:31:41;5.40;;;1.73;;
9420;SDS011;4749;51.398;5.466;2023-06-05T16:34:10;4.07;;;1.60;;
9420;SDS011;4749;51.398;5.466;2023-06-05T16:36:39;5.07;;;1.88;;
9420;SDS011;4749;51.398;5.466;2023-06-05T16:39:06;3.53;;;1.70;;
9420;SDS011;4749;51.398;5.466;2023-06-05T16:41:36;2.25;;;1.52;;
9420;SDS011;4749;51.398;5.466;2023-06-05T16:44:06;3.13;;;1.60;;
9420;SDS011;4749;51.398;5.466;2023-06-05T16:46:36;3.20;;;1.80;;
9420;SDS011;4749;51.398;5.466;2023-06-05T16:49:07;4.68;;;1.60;;
9420;SDS011;4749;51.398;5.466;2023-06-05T16:51:35;3.60;;;1.58;;
9420;SDS011;4749;51.398;5.466;2023-06-05T16:54:03;5.50;;;1.50;;
9420;SDS011;4749;51.398;5.466;2023-06-05T16:56:32;1.95;;;1.60;;
9420;SDS011;4749;51.398;5.466;2023-06-05T16:58:59;2.95;;;1.88;;
9420;SDS011;4749;51.398;5.466;2023-06-05T17:01:27;6.53;;;2.20;;
9420;SDS011;4749;51.398;5.466;2023-06-05T17:03:54;2.03;;;1.63;;
9420;SDS011;4749;51.398;5.466;2023-06-05T17:06:22;4.40;;;1.77;;
9420;SDS011;4749;51.398;5.466;2023-06-05T17:08:50;2.58;;;2.00;;
9420;SDS011;4749;51.398;5.466;2023-06-05T17:11:17;3.22;;;1.75;;
9420;SDS011;4749;51.398;5.466;2023-06-05T17:13:44;3.78;;;1.70;;
9420;SDS011;4749;51.398;5.466;2023-06-05T17:16:11;4.50;;;1.70;;
9420;SDS011;4749;51.398;5.466;2023-06-05T17:18:39;4.60;;;1.80;;
9420;SDS011;4749;51.398;5.466;2023-06-05T17:21:06;2.65;;;1.63;;
9420;SDS011;4749;51.398;5.466;2023-06-05T17:23:36;4.22;;;2.00;;
9420;SDS011;4749;51.398;5.466;2023-06-05T17:26:04;3.45;;;2.25;;
9420;SDS011;4749;51.398;5.466;2023-06-05T17:28:31;4.28;;;2.55;;
9420;SDS011;4749;51.398;5.466;2023-06-05T17:30:58;5.15;;;2.67;;
9420;SDS011;4749;51.398;5.466;2023-06-05T17:33:25;5.78;;;2.58;;
9420;SDS011;4749;51.398;5.466;2023-06-05T17:35:53;8.25;;;2.47;;
9420;SDS011;4749;51.398;5.466;2023-06-05T17:38:20;5.97;;;2.88;;
9420;SDS011;4749;51.398;5.466;2023-06-05T17:40:48;6.05;;;3.47;;
9420;SDS011;4749;51.398;5.466;2023-06-05T17:43:15;4.22;;;2.80;;
9420;SDS011;4749;51.398;5.466;2023-06-05T17:45:43;4.32;;;2.53;;
9420;SDS011;4749;51.398;5.466;2023-06-05T17:48:11;4.90;;;3.00;;
9420;SDS011;4749;51.398;5.466;2023-06-05T17:50:39;6.32;;;3.00;;
9420;SDS011;4749;51.398;5.466;2023-06-05T17:53:06;5.30;;;2.75;;